Time;durP1;ratioP1;P1;durP2;ratioP2;P2;SDS_P1;SDS_P2;PMS_P1;PMS_P2;Temp;Humidity;BMP_temperature;BMP_pressure;BME280_temperature;BME280_humidity;BME280_pressure;Samples;Min_cycle;Max_cycle;Signal;HPM_P1;HPM_P2
2021/10/03 04:01:13;;;;;;;5.53;5.13;;;17.60;99.90;;;;;;5648202;23;20514;-69
2021/10/03 04:03:40;;;;;;;6.03;5.50;;;17.60;99.90;;;;;;5014864;28;21009;-69
2021/10/03 04:06:07;;;;;;;5.27;4.87;;;17.50;99.90;;;;;;5015021;28;20451;-69
2021/10/03 04:08:33;;;;;;;6.93;5.70;;;17.50;99.90;;;;;;5015405;28;20452;-69
2021/10/03 04:11:00;;;;;;;5.30;4.87;;;17.50;99.90;;;;;;5015022;28;20883;-69
2021/10/03 04:13:27;;;;;;;5.97;5.57;;;17.50;99.90;;;;;;5015450;28;20449;-69
2021/10/03 04:15:53;;;;;;;4.63;4.23;;;17.40;99.90;;;;;;5014825;28;20449;-69
2021/10/03 04:18:22;;;;;;;5.10;4.60;;;17.40;99.90;;;;;;5014476;28;20457;-70
2021/10/03 04:20:48;;;;;;;5.93;5.43;;;17.40;99.90;;;;;;5014981;28;20484;-69
2021/10/03 04:23:15;;;;;;;6.00;5.47;;;17.30;99.90;;;;;;5015539;28;20452;-70
2021/10/03 04:25:42;;;;;;;5.83;5.30;;;17.30;99.90;;;;;;5014918;28;20464;-70
2021/10/03 04:28:10;;;;;;;5.70;5.30;;;17.20;99.90;;;;;;5014761;28;20958;-70
2021/10/03 04:30:36;;;;;;;6.80;5.10;;;17.30;99.90;;;;;;5014364;28;20998;-70
2021/10/03 04:33:03;;;;;;;5.33;4.70;;;17.10;99.90;;;;;;5015614;28;20457;-70
2021/10/03 04:35:31;;;;;;;5.40;4.90;;;17.10;99.90;;;;;;5014810;28;20453;-70
2021/10/03 04:37:58;;;;;;;4.67;4.30;;;17.10;99.90;;;;;;5019553;28;20488;-70
2021/10/03 04:40:25;;;;;;;5.13;4.73;;;17.10;99.90;;;;;;5016572;28;20963;-70
2021/10/03 04:42:51;;;;;;;5.30;4.90;;;17.00;99.90;;;;;;5015493;28;20459;-70
2021/10/03 04:45:18;;;;;;;5.20;4.80;;;17.00;99.90;;;;;;5014332;28;20966;-70
2021/10/03 04:47:46;;;;;;;5.10;4.40;;;17.00;99.90;;;;;;5014873;28;20452;-70
2021/10/03 04:50:14;;;;;;;4.50;4.20;;;17.00;99.90;;;;;;5014577;28;20499;-69
2021/10/03 04:52:43;;;;;;;5.27;4.80;;;17.00;99.90;;;;;;5017467;28;20453;-69
2021/10/03 04:55:10;;;;;;;8.13;4.10;;;17.00;99.90;;;;;;5015066;28;20457;-69
2021/10/03 04:57:38;;;;;;;5.13;4.73;;;17.00;99.90;;;;;;5016228;28;20879;-70
2021/10/03 05:00:06;;;;;;;5.03;4.63;;;17.00;99.90;;;;;;5015692;28;20511;-70
2021/10/03 05:02:33;;;;;;;4.73;4.33;;;17.00;99.90;;;;;;5021407;28;20488;-69
2021/10/03 05:05:00;;;;;;;5.37;4.97;;;17.00;99.90;;;;;;5018955;28;20959;-69
2021/10/03 05:07:26;;;;;;;5.93;5.43;;;17.00;99.90;;;;;;5019232;28;20453;-69
2021/10/03 05:09:54;;;;;;;4.60;4.30;;;17.00;99.90;;;;;;5018947;28;20456;-69
2021/10/03 05:12:21;;;;;;;5.63;5.07;;;17.00;99.90;;;;;;5020060;28;20878;-69
2021/10/03 05:14:48;;;;;;;5.10;4.70;;;17.00;99.90;;;;;;5020036;28;20463;-69
2021/10/03 05:17:14;;;;;;;4.63;4.33;;;17.10;99.90;;;;;;5018734;28;20479;-69
2021/10/03 05:19:41;;;;;;;4.87;4.47;;;17.10;99.90;;;;;;5024953;28;20954;-69
2021/10/03 05:22:08;;;;;;;4.53;4.13;;;17.10;99.90;;;;;;5018284;28;20485;-69
2021/10/03 05:24:34;;;;;;;5.13;4.73;;;17.10;99.90;;;;;;5018128;28;20480;-69
2021/10/03 05:27:03;;;;;;;5.40;5.00;;;17.20;99.90;;;;;;5018197;28;20456;-69
2021/10/03 05:29:29;;;;;;;5.97;5.47;;;17.20;99.90;;;;;;5018427;28;20480;-68
2021/10/03 05:31:56;;;;;;;5.70;4.50;;;17.20;99.90;;;;;;5018509;28;20846;-69
2021/10/03 05:34:23;;;;;;;4.80;4.50;;;17.20;99.90;;;;;;5018903;28;20453;-69
2021/10/03 05:36:50;;;;;;;4.50;4.20;;;17.20;99.90;;;;;;5018117;28;20516;-69
2021/10/03 05:39:17;;;;;;;4.27;3.97;;;17.20;99.90;;;;;;5018226;28;20463;-69
2021/10/03 05:41:43;;;;;;;7.60;5.00;;;17.30;99.90;;;;;;5018228;28;20476;-69
2021/10/03 05:44:11;;;;;;;4.13;3.83;;;17.40;99.90;;;;;;5020957;28;20452;-70
2021/10/03 05:46:38;;;;;;;5.00;4.60;;;17.50;99.90;;;;;;5018303;28;20814;-70
2021/10/03 05:49:05;;;;;;;4.63;4.30;;;17.50;99.90;;;;;;5021101;28;20463;-70
2021/10/03 05:51:33;;;;;;;4.23;3.93;;;17.50;99.90;;;;;;5019193;28;20476;-70
2021/10/03 05:54:00;;;;;;;6.87;4.10;;;17.50;99.90;;;;;;5017964;28;20449;-70
2021/10/03 05:56:26;;;;;;;3.90;3.60;;;17.60;99.90;;;;;;5018253;28;20457;-69
2021/10/03 05:58:53;;;;;;;4.50;4.20;;;17.70;99.90;;;;;;5020562;28;20456;-69
2021/10/03 06:01:21;;;;;;;4.50;3.80;;;17.60;99.90;;;;;;5017298;28;20481;-69
2021/10/03 06:03:48;;;;;;;4.87;4.40;;;17.60;99.90;;;;;;5017946;28;20458;-70
2021/10/03 06:06:15;;;;;;;4.03;3.73;;;17.60;99.90;;;;;;5017689;28;20529;-69
2021/10/03 06:08:42;;;;;;;3.80;3.50;;;17.60;99.90;;;;;;5017194;28;20455;-69
2021/10/03 06:11:08;;;;;;;6.80;4.50;;;17.60;99.90;;;;;;5017337;28;20472;-70
2021/10/03 06:13:35;;;;;;;4.27;3.93;;;17.60;99.90;;;;;;5017477;28;20452;-70
2021/10/03 06:16:02;;;;;;;3.93;3.63;;;17.60;99.90;;;;;;5017931;28;20527;-72
2021/10/03 06:18:30;;;;;;;3.53;3.20;;;17.70;99.90;;;;;;5017452;28;20845;-73
2021/10/03 06:20:57;;;;;;;4.10;3.80;;;17.80;99.90;;;;;;5017480;28;20480;-72
2021/10/03 06:23:23;;;;;;;7.50;3.73;;;17.80;99.90;;;;;;5017502;28;20483;-73
2021/10/03 06:25:50;;;;;;;3.80;3.50;;;17.80;99.90;;;;;;5017222;28;20962;-72
2021/10/03 06:28:17;;;;;;;4.30;3.50;;;17.90;99.90;;;;;;5017527;28;20449;-73
2021/10/03 06:30:44;;;;;;;4.17;3.87;;;18.00;99.90;;;;;;5017279;28;20477;-73
2021/10/03 06:33:11;;;;;;;3.60;3.40;;;18.10;99.90;;;;;;5018574;28;20983;-73
2021/10/03 06:35:39;;;;;;;4.27;3.93;;;18.30;99.90;;;;;;5017573;28;20457;-68
2021/10/03 06:38:05;;;;;;;4.50;4.20;;;18.50;99.90;;;;;;5016855;28;20473;-68
2021/10/03 06:40:32;;;;;;;3.60;3.40;;;18.60;99.90;;;;;;5016257;28;20469;-73
2021/10/03 06:42:59;;;;;;;10.63;4.30;;;18.70;99.90;;;;;;5016662;28;20464;-71
2021/10/03 06:45:25;;;;;;;5.50;4.50;;;18.70;99.90;;;;;;5017000;28;20452;-73
2021/10/03 06:47:52;;;;;;;3.67;3.43;;;18.80;99.90;;;;;;5017101;28;20504;-70
2021/10/03 06:50:19;;;;;;;4.03;3.73;;;18.80;99.90;;;;;;5016795;28;20459;-72
2021/10/03 06:52:47;;;;;;;5.10;4.70;;;18.80;99.90;;;;;;5016823;28;20464;-71
2021/10/03 06:55:14;;;;;;;4.33;4.03;;;18.90;99.90;;;;;;5016911;28;20457;-72
2021/10/03 06:57:41;;;;;;;5.63;4.53;;;18.90;99.90;;;;;;5016199;28;20508;-71
2021/10/03 07:00:09;;;;;;;4.37;4.07;;;19.00;99.90;;;;;;5016120;28;20452;-71
2021/10/03 07:02:38;;;;;;;4.00;3.70;;;19.10;99.90;;;;;;5016623;28;20966;-72
2021/10/03 07:05:05;;;;;;;4.43;3.50;;;19.20;99.90;;;;;;5016585;28;20453;-71
2021/10/03 07:07:32;;;;;;;3.97;3.77;;;19.30;99.90;;;;;;5017448;28;20456;-71
2021/10/03 07:10:00;;;;;;;5.30;3.70;;;19.40;99.90;;;;;;5020927;28;20476;-71
2021/10/03 07:12:27;;;;;;;3.93;3.67;;;19.40;99.90;;;;;;5017983;28;20473;-71
2021/10/03 07:14:54;;;;;;;4.50;4.10;;;19.50;99.90;;;;;;5016739;28;20457;-71
2021/10/03 07:17:20;;;;;;;3.93;3.63;;;19.60;99.90;;;;;;5016573;28;20484;-71
2021/10/03 07:19:47;;;;;;;3.43;3.23;;;19.60;99.90;;;;;;5016345;28;20448;-70
2021/10/03 07:22:14;;;;;;;4.10;3.80;;;19.70;99.90;;;;;;5016306;28;20469;-71
2021/10/03 07:24:41;;;;;;;5.40;4.33;;;19.70;99.90;;;;;;5015517;28;20967;-70
2021/10/03 07:27:09;;;;;;;3.40;3.10;;;19.80;99.90;;;;;;5016444;28;20453;-70
2021/10/03 07:29:36;;;;;;;4.57;4.00;;;19.80;99.90;;;;;;5016889;28;20457;-71
2021/10/03 07:32:06;;;;;;;4.00;3.40;;;19.80;99.90;;;;;;5016115;28;20484;-70
2021/10/03 07:34:33;;;;;;;3.87;3.57;;;19.90;99.90;;;;;;5016272;28;20460;-71
2021/10/03 07:37:00;;;;;;;5.20;4.23;;;19.90;99.90;;;;;;5015958;28;20457;-70
2021/10/03 07:39:27;;;;;;;4.83;4.53;;;19.90;99.90;;;;;;5015885;28;20464;-70
2021/10/03 07:41:54;;;;;;;5.40;4.50;;;19.90;99.90;;;;;;5015385;28;20979;-70
2021/10/03 07:44:24;;;;;;;4.00;3.80;;;19.80;99.90;;;;;;5016205;28;20931;-70
2021/10/03 07:46:50;;;;;;;4.23;3.30;;;19.80;99.90;;;;;;5015733;28;20453;-71
2021/10/03 07:49:17;;;;;;;5.50;5.10;;;19.70;99.90;;;;;;5015477;28;20453;-70
2021/10/03 07:51:44;;;;;;;3.90;3.60;;;19.80;99.90;;;;;;5015841;28;20480;-70
2021/10/03 07:54:11;;;;;;;4.43;4.13;;;19.90;99.90;;;;;;5017514;28;20459;-71
2021/10/03 07:56:38;;;;;;;3.80;3.60;;;19.90;99.90;;;;;;5016618;28;20464;-72
2021/10/03 07:59:04;;;;;;;3.60;3.30;;;19.90;99.90;;;;;;5016692;28;20484;-71
2021/10/03 08:01:32;;;;;;;3.70;3.40;;;19.90;99.90;;;;;;5016123;28;20492;-71
2021/10/03 08:04:00;;;;;;;3.87;3.60;;;19.80;99.90;;;;;;5016626;28;20456;-72
2021/10/03 08:06:28;;;;;;;3.50;3.30;;;19.90;99.90;;;;;;5016337;28;20452;-72
2021/10/03 08:08:54;;;;;;;4.07;3.77;;;20.00;99.90;;;;;;5015704;28;20487;-72
2021/10/03 08:11:22;;;;;;;3.43;3.23;;;20.00;99.90;;;;;;5016129;28;20516;-72
2021/10/03 08:13:49;;;;;;;3.63;3.33;;;19.90;99.90;;;;;;5016072;28;20461;-70
2021/10/03 08:16:18;;;;;;;5.60;3.63;;;19.90;99.90;;;;;;5015495;28;20452;-69
2021/10/03 08:18:47;;;;;;;3.53;3.33;;;19.90;99.90;;;;;;5015363;28;20528;-69
2021/10/03 08:21:15;;;;;;;4.07;3.77;;;20.00;99.90;;;;;;5015575;28;20488;-70
2021/10/03 08:23:42;;;;;;;6.60;2.83;;;20.00;99.90;;;;;;5015467;28;20468;-70
2021/10/03 08:26:09;;;;;;;3.93;3.63;;;20.00;99.90;;;;;;5014990;28;20480;-71
2021/10/03 08:28:35;;;;;;;7.00;4.03;;;20.00;99.90;;;;;;5015067;28;20455;-71
2021/10/03 08:31:02;;;;;;;4.27;4.07;;;20.00;99.90;;;;;;5014973;28;20503;-72
2021/10/03 08:33:29;;;;;;;4.30;3.90;;;20.00;99.90;;;;;;5016276;28;20468;-70
2021/10/03 08:35:57;;;;;;;4.50;4.10;;;20.10;99.90;;;;;;5015324;28;20528;-71
2021/10/03 08:38:24;;;;;;;4.70;3.57;;;20.10;99.90;;;;;;5015397;28;20842;-70
2021/10/03 08:40:51;;;;;;;4.57;3.73;;;20.10;99.90;;;;;;5016943;28;20479;-70
2021/10/03 08:43:18;;;;;;;3.57;3.00;;;20.10;99.90;;;;;;5016168;28;20461;-70
2021/10/03 08:45:46;;;;;;;3.13;2.93;;;20.10;99.90;;;;;;5015408;28;20461;-70
2021/10/03 08:48:14;;;;;;;3.20;3.00;;;20.20;99.90;;;;;;5015820;28;20449;-72
2021/10/03 08:50:42;;;;;;;3.17;2.97;;;20.20;99.90;;;;;;5015533;28;20476;-71
2021/10/03 08:53:11;;;;;;;3.30;3.10;;;20.40;99.90;;;;;;5016333;28;20464;-71
2021/10/03 08:55:38;;;;;;;3.70;3.43;;;20.50;99.90;;;;;;5015172;28;20948;-71
2021/10/03 08:58:05;;;;;;;3.53;3.23;;;20.60;99.90;;;;;;5015506;28;20499;-72
2021/10/03 09:00:31;;;;;;;3.50;3.30;;;20.70;99.90;;;;;;5014985;28;20469;-70
2021/10/03 09:03:01;;;;;;;4.93;3.57;;;20.80;99.90;;;;;;5015301;28;20459;-71
2021/10/03 09:05:32;;;;;;;3.77;3.47;;;20.80;99.90;;;;;;5015341;28;20452;-71
2021/10/03 09:08:06;;;;;;;3.80;3.50;;;21.00;99.90;;;;;;5016182;28;20523;-70
2021/10/03 09:10:59;;;;;;;3.70;3.27;;;21.00;99.90;;;;;;5015995;28;20481;-70
2021/10/03 09:13:44;;;;;;;3.70;3.50;;;21.10;99.90;;;;;;5012805;28;20453;-70
2021/10/03 09:16:14;;;;;;;3.70;3.30;;;21.00;99.90;;;;;;5015513;28;20437;-69
2021/10/03 09:18:43;;;;;;;3.50;3.20;;;21.00;99.90;;;;;;5014773;28;20476;-70
2021/10/03 09:21:11;;;;;;;3.20;3.00;;;21.00;99.90;;;;;;5014424;28;20473;-71
2021/10/03 09:23:39;;;;;;;5.13;3.70;;;21.00;99.90;;;;;;5014823;28;20453;-66
2021/10/03 09:26:13;;;;;;;6.40;4.40;;;21.00;99.90;;;;;;5013900;28;20857;-67
2021/10/03 09:28:40;;;;;;;3.67;3.47;;;21.00;99.90;;;;;;5014381;28;20437;-67
2021/10/03 09:31:10;;;;;;;5.30;3.90;;;21.10;99.90;;;;;;5014013;28;20983;-66
2021/10/03 09:33:46;;;;;;;3.40;3.10;;;21.20;99.90;;;;;;5015006;28;20433;-67
2021/10/03 09:36:15;;;;;;;4.70;4.13;;;21.20;99.90;;;;;;5015000;28;20467;-65
2021/10/03 09:38:45;;;;;;;4.17;3.77;;;21.30;99.90;;;;;;5014625;28;20481;-65
2021/10/03 09:41:15;;;;;;;3.50;3.20;;;21.30;99.90;;;;;;5014574;28;20491;-66
2021/10/03 09:43:45;;;;;;;4.40;4.10;;;21.30;99.90;;;;;;5017759;28;20444;-66
2021/10/03 09:46:41;;;;;;;3.87;3.63;;;21.40;99.90;;;;;;5017027;28;20528;-66
2021/10/03 09:49:10;;;;;;;4.20;3.80;;;21.40;99.90;;;;;;5018733;28;20424;-66
2021/10/03 09:51:38;;;;;;;3.80;3.60;;;21.30;99.90;;;;;;5018689;28;20476;-65
2021/10/03 09:54:06;;;;;;;5.00;3.60;;;21.30;99.90;;;;;;5018258;28;20453;-64
2021/10/03 09:56:35;;;;;;;3.67;3.37;;;21.30;99.90;;;;;;5017087;28;20455;-63
2021/10/03 09:59:03;;;;;;;4.30;3.80;;;21.40;99.90;;;;;;5017728;28;20871;-63
2021/10/03 10:01:31;;;;;;;3.50;3.30;;;21.50;99.90;;;;;;5017520;28;20554;-63
2021/10/03 10:03:58;;;;;;;6.03;4.00;;;21.50;99.90;;;;;;5017963;28;20491;-64
2021/10/03 10:06:25;;;;;;;6.20;3.60;;;21.60;99.90;;;;;;5017504;28;20455;-63
2021/10/03 10:08:56;;;;;;;3.80;3.40;;;21.60;99.90;;;;;;5017633;28;20940;-64
2021/10/03 10:11:28;;;;;;;3.57;2.93;;;21.60;99.90;;;;;;5017509;28;20480;-63
2021/10/03 10:13:57;;;;;;;3.77;3.57;;;21.60;99.90;;;;;;5017751;28;20441;-64
2021/10/03 10:16:29;;;;;;;3.77;3.50;;;21.60;99.90;;;;;;5017395;28;20476;-64
2021/10/03 10:19:28;;;;;;;4.07;3.60;;;21.60;99.90;;;;;;5017196;28;20473;-64
2021/10/03 10:22:41;;;;;;;5.80;4.20;;;21.60;99.90;;;;;;5017203;28;20484;-64
2021/10/03 10:25:18;;;;;;;3.70;3.50;;;21.70;99.90;;;;;;5016998;28;20468;-64
2021/10/03 10:28:06;;;;;;;3.70;3.50;;;21.80;99.90;;;;;;5017212;28;20436;-64
2021/10/03 10:30:36;;;;;;;4.83;4.47;;;21.90;99.90;;;;;;5017103;28;20635;-64
2021/10/03 10:33:14;;;;;;;8.87;4.43;;;22.00;99.90;;;;;;5017182;28;20457;-64
2021/10/03 10:35:42;;;;;;;4.30;3.93;;;22.10;99.90;;;;;;5017286;28;20447;-63
2021/10/03 10:38:16;;;;;;;5.53;4.23;;;22.10;99.90;;;;;;5016843;28;20843;-64
2021/10/03 10:40:43;;;;;;;4.23;3.67;;;22.10;99.90;;;;;;5016683;28;20846;-64
2021/10/03 10:43:47;;;;;;;3.93;3.70;;;22.20;99.90;;;;;;5017027;28;20455;-64
2021/10/03 10:46:48;;;;;;;4.53;3.70;;;22.30;99.90;;;;;;5017008;28;20476;-63
2021/10/03 10:49:35;;;;;;;3.77;3.47;;;22.40;99.90;;;;;;5016886;28;20459;-64
2021/10/03 10:52:25;;;;;;;4.00;3.67;;;22.60;99.90;;;;;;5016471;28;20476;-63
2021/10/03 10:55:27;;;;;;;3.43;3.23;;;22.70;99.90;;;;;;5016852;28;20452;-63
2021/10/03 10:58:17;;;;;;;4.47;4.07;;;22.90;99.90;;;;;;5016350;28;20452;-63
2021/10/03 11:00:59;;;;;;;5.87;3.47;;;23.00;99.90;;;;;;5016381;28;20851;-65
2021/10/03 11:04:03;;;;;;;5.40;4.87;;;23.10;99.90;;;;;;5016868;28;20472;-63
2021/10/03 11:07:02;;;;;;;6.03;4.83;;;23.00;99.90;;;;;;5018231;28;20463;-63
2021/10/03 11:09:33;;;;;;;9.23;8.23;;;22.90;99.90;;;;;;5016964;28;20437;-62
2021/10/03 11:12:05;;;;;;;4.67;4.27;;;22.90;99.90;;;;;;5017235;28;20468;-63
2021/10/03 11:14:32;;;;;;;4.13;3.87;;;23.00;99.90;;;;;;5017105;28;20437;-65
2021/10/03 11:17:01;;;;;;;5.00;4.70;;;23.00;99.90;;;;;;5016314;28;20453;-64
2021/10/03 11:19:50;;;;;;;4.30;4.00;;;22.90;99.90;;;;;;5016221;28;20484;-64
2021/10/03 11:22:27;;;;;;;5.30;4.90;;;22.80;99.90;;;;;;5014193;28;20473;-65
2021/10/03 11:24:55;;;;;;;4.73;4.07;;;22.70;99.90;;;;;;5016370;28;20443;-64
2021/10/03 11:27:26;;;;;;;4.67;4.27;;;22.80;99.90;;;;;;5016063;28;20462;-64
2021/10/03 11:29:55;;;;;;;4.47;4.17;;;22.70;99.90;;;;;;5015979;28;20429;-64
2021/10/03 11:32:24;;;;;;;4.40;4.10;;;22.70;99.90;;;;;;5015813;28;20495;-64
2021/10/03 11:34:52;;;;;;;4.60;4.20;;;22.70;99.90;;;;;;5015939;28;20475;-64
2021/10/03 11:37:26;;;;;;;5.00;4.57;;;22.60;99.90;;;;;;5016190;28;20449;-64
2021/10/03 11:39:55;;;;;;;5.50;3.87;;;22.60;99.90;;;;;;5015803;28;20856;-64
2021/10/03 11:42:31;;;;;;;4.00;3.70;;;22.60;99.90;;;;;;5016130;28;20481;-64
2021/10/03 11:45:00;;;;;;;4.13;3.73;;;22.70;99.90;;;;;;5015689;28;20479;-66
2021/10/03 11:47:26;;;;;;;4.90;4.10;;;22.70;99.90;;;;;;5015892;28;20460;-64
2021/10/03 11:49:53;;;;;;;4.03;3.73;;;22.70;99.90;;;;;;5015679;28;20456;-64
2021/10/03 11:52:34;;;;;;;3.73;3.37;;;22.70;99.90;;;;;;5016020;28;20484;-64
2021/10/03 11:55:04;;;;;;;5.43;5.03;;;22.80;99.90;;;;;;5015406;28;20938;-65
2021/10/03 11:57:31;;;;;;;4.20;3.90;;;22.80;99.90;;;;;;5015384;28;20488;-64
2021/10/03 12:00:19;;;;;;;7.77;4.60;;;22.70;99.90;;;;;;5015571;28;20484;-63
2021/10/03 12:02:47;;;;;;;6.63;5.00;;;22.60;99.90;;;;;;5015506;28;20429;-63
2021/10/03 12:05:18;;;;;;;4.67;4.30;;;22.60;99.90;;;;;;5015409;28;20503;-64
2021/10/03 12:07:46;;;;;;;5.20;4.70;;;22.60;99.90;;;;;;5015705;28;20433;-64
2021/10/03 12:10:15;;;;;;;4.77;4.47;;;22.50;99.90;;;;;;5015219;28;20456;-64
2021/10/03 12:12:55;;;;;;;5.47;5.03;;;22.50;99.90;;;;;;5016023;28;20460;-64
2021/10/03 12:15:41;;;;;;;6.93;4.90;;;22.50;99.90;;;;;;5015020;28;20433;-66
2021/10/03 12:18:09;;;;;;;5.47;4.97;;;22.50;99.90;;;;;;5015689;28;20440;-68
2021/10/03 12:20:57;;;;;;;7.80;5.30;;;22.50;99.90;;;;;;5015685;28;20489;-66
2021/10/03 12:23:53;;;;;;;5.73;5.17;;;22.50;99.90;;;;;;5015940;28;20441;-68
2021/10/03 12:26:29;;;;;;;6.60;5.50;;;22.60;99.90;;;;;;5014954;28;21039;-67
2021/10/03 12:28:59;;;;;;;5.33;4.90;;;22.70;99.90;;;;;;5015530;28;20900;-68
2021/10/03 12:31:53;;;;;;;6.53;4.93;;;22.70;99.90;;;;;;5015836;28;20484;-68
2021/10/03 12:34:35;;;;;;;4.80;4.40;;;22.70;99.90;;;;;;5015854;28;20449;-68
2021/10/03 12:37:06;;;;;;;5.17;4.77;;;22.70;99.90;;;;;;5018682;28;20464;-68
2021/10/03 12:39:36;;;;;;;5.80;5.27;;;22.70;99.90;;;;;;5019184;28;20820;-68
2021/10/03 12:42:12;;;;;;;4.67;4.30;;;22.70;99.90;;;;;;5019343;28;20484;-68
2021/10/03 12:44:41;;;;;;;4.63;4.30;;;22.70;99.90;;;;;;5015652;28;20437;-68
2021/10/03 12:47:09;;;;;;;5.90;5.10;;;22.70;99.90;;;;;;5015180;28;20452;-68
2021/10/03 12:49:36;;;;;;;4.70;4.30;;;22.80;99.90;;;;;;5015154;28;20449;-68
2021/10/03 12:52:05;;;;;;;4.83;4.50;;;22.80;99.90;;;;;;5015404;28;20481;-68
2021/10/03 12:54:32;;;;;;;9.93;8.40;;;22.80;99.90;;;;;;5016249;28;20453;-68
2021/10/03 12:57:03;;;;;;;7.67;7.07;;;22.90;99.90;;;;;;5015055;28;20484;-68
2021/10/03 12:59:30;;;;;;;6.33;5.57;;;23.00;99.90;;;;;;5014980;28;20472;-68
2021/10/03 13:01:57;;;;;;;5.50;5.10;;;23.00;99.90;;;;;;5015094;28;21015;-68
2021/10/03 13:04:23;;;;;;;5.30;4.90;;;23.00;99.90;;;;;;5015065;28;20464;-68
2021/10/03 13:06:50;;;;;;;5.97;5.07;;;23.00;99.90;;;;;;5014860;28;20975;-66
2021/10/03 13:09:17;;;;;;;4.73;4.33;;;23.10;99.90;;;;;;5015307;28;20560;-66
2021/10/03 13:11:44;;;;;;;12.53;6.50;;;23.10;99.90;;;;;;5017081;28;20477;-66
2021/10/03 13:14:12;;;;;;;4.53;4.23;;;23.10;99.90;;;;;;5014961;28;20433;-66
2021/10/03 13:16:39;;;;;;;5.33;4.83;;;23.10;99.90;;;;;;5014969;28;20457;-66
2021/10/03 13:19:06;;;;;;;5.23;4.73;;;23.10;99.90;;;;;;5014927;28;20480;-66
2021/10/03 13:21:33;;;;;;;5.07;4.37;;;23.10;99.90;;;;;;5016470;28;20476;-67
2021/10/03 13:24:00;;;;;;;7.20;4.80;;;23.00;99.90;;;;;;5018983;28;20456;-68
2021/10/03 13:26:27;;;;;;;4.60;4.30;;;23.00;99.90;;;;;;5023462;28;20459;-67
2021/10/03 13:28:54;;;;;;;6.97;5.20;;;23.00;99.90;;;;;;5018958;28;20480;-67
2021/10/03 13:31:22;;;;;;;4.20;3.90;;;22.90;99.90;;;;;;5019228;28;20478;-67
2021/10/03 13:33:49;;;;;;;5.30;4.90;;;22.80;99.90;;;;;;5019182;28;20452;-67
2021/10/03 13:36:16;;;;;;;6.10;4.17;;;22.70;99.90;;;;;;5018884;28;20452;-67
2021/10/03 13:38:43;;;;;;;5.27;4.77;;;22.70;99.90;;;;;;5018843;28;20476;-67
2021/10/03 13:41:10;;;;;;;5.50;5.00;;;22.60;99.90;;;;;;5017948;28;20979;-67
2021/10/03 13:43:37;;;;;;;6.83;5.03;;;22.60;99.90;;;;;;5018646;28;20896;-67
2021/10/03 13:46:03;;;;;;;6.03;5.53;;;22.50;99.90;;;;;;5019035;28;20547;-67
2021/10/03 13:48:31;;;;;;;10.40;5.60;;;22.40;99.90;;;;;;5018247;28;20460;-67
2021/10/03 13:50:58;;;;;;;6.50;5.10;;;22.40;99.90;;;;;;5018241;28;20476;-67
2021/10/03 13:53:29;;;;;;;6.13;5.60;;;22.30;99.90;;;;;;5018796;28;20456;-66
2021/10/03 13:55:57;;;;;;;5.50;5.10;;;22.30;99.90;;;;;;5017876;28;20536;-68
2021/10/03 13:58:24;;;;;;;6.13;5.50;;;22.20;99.90;;;;;;5017984;28;20449;-68
2021/10/03 14:00:51;;;;;;;5.87;5.37;;;22.20;99.90;;;;;;5017374;28;20481;-69
2021/10/03 14:03:18;;;;;;;5.20;4.80;;;22.10;99.90;;;;;;5017972;28;20441;-68
2021/10/03 14:05:46;;;;;;;5.13;4.77;;;22.10;99.90;;;;;;5018025;28;20453;-68
2021/10/03 14:08:13;;;;;;;5.93;5.20;;;22.10;99.90;;;;;;5018305;28;20453;-68
2021/10/03 14:10:40;;;;;;;4.97;4.67;;;22.00;99.90;;;;;;5019415;28;20477;-69
2021/10/03 14:13:07;;;;;;;5.33;4.93;;;22.00;99.90;;;;;;5017674;28;20466;-67
2021/10/03 14:15:33;;;;;;;9.70;5.50;;;22.00;99.90;;;;;;5016673;28;20944;-68
2021/10/03 14:18:02;;;;;;;6.13;4.67;;;22.00;99.90;;;;;;5017651;28;20453;-68
2021/10/03 14:20:33;;;;;;;5.50;5.10;;;22.00;99.90;;;;;;5017115;28;20861;-67
2021/10/03 14:23:02;;;;;;;6.07;5.40;;;21.90;99.90;;;;;;5017315;28;20837;-66
2021/10/03 14:25:29;;;;;;;5.87;5.27;;;21.90;99.90;;;;;;5017296;28;20448;-67
2021/10/03 14:27:56;;;;;;;5.23;4.93;;;21.90;99.90;;;;;;5017195;28;20457;-68
2021/10/03 14:30:23;;;;;;;7.20;5.17;;;21.80;99.90;;;;;;5016694;28;20458;-67
2021/10/03 14:32:50;;;;;;;6.13;5.53;;;21.80;99.90;;;;;;5015726;28;20449;-67
2021/10/03 14:35:17;;;;;;;6.10;5.60;;;21.70;99.90;;;;;;5016909;28;20453;-67
2021/10/03 14:37:43;;;;;;;7.63;5.67;;;21.70;99.90;;;;;;5016893;28;20457;-67
2021/10/03 14:40:12;;;;;;;7.27;6.67;;;21.70;99.90;;;;;;5017387;28;20476;-67
2021/10/03 14:42:39;;;;;;;7.10;6.40;;;21.70;99.90;;;;;;5016898;28;21007;-67
2021/10/03 14:45:07;;;;;;;7.33;6.73;;;21.70;99.90;;;;;;5017053;28;20490;-67
2021/10/03 14:47:34;;;;;;;8.07;7.40;;;21.60;99.90;;;;;;5017372;28;20457;-67
2021/10/03 14:50:01;;;;;;;7.37;6.70;;;21.60;99.90;;;;;;5016704;28;20456;-67
2021/10/03 14:52:28;;;;;;;8.50;7.70;;;21.30;99.90;;;;;;5016453;28;20980;-67
2021/10/03 14:54:55;;;;;;;7.77;7.17;;;21.20;99.90;;;;;;5017074;28;20484;-67
2021/10/03 14:57:23;;;;;;;8.20;6.47;;;21.00;99.90;;;;;;5016808;28;20459;-65
2021/10/03 14:59:50;;;;;;;7.57;6.80;;;20.80;99.90;;;;;;5016704;28;20477;-66
2021/10/03 15:02:17;;;;;;;9.03;7.87;;;20.70;99.90;;;;;;5016506;28;20481;-65
2021/10/03 15:04:44;;;;;;;10.70;8.63;;;20.70;99.90;;;;;;5016777;28;20448;-67
2021/10/03 15:07:11;;;;;;;11.33;10.03;;;20.70;99.90;;;;;;5015862;28;20940;-67
2021/10/03 15:09:38;;;;;;;12.60;8.67;;;20.60;99.90;;;;;;5016405;28;20785;-68
2021/10/03 15:12:05;;;;;;;8.20;7.40;;;20.70;99.90;;;;;;5016625;28;20476;-67
2021/10/03 15:14:33;;;;;;;9.90;7.53;;;20.50;99.90;;;;;;5016706;28;20539;-68
2021/10/03 15:17:00;;;;;;;7.63;6.90;;;20.60;99.90;;;;;;5016874;28;20456;-68
2021/10/03 15:19:27;;;;;;;7.80;7.00;;;20.60;99.90;;;;;;5016416;28;20463;-67
2021/10/03 15:21:54;;;;;;;8.40;7.70;;;20.60;99.90;;;;;;5016336;28;20976;-68
2021/10/03 15:24:20;;;;;;;8.30;6.77;;;20.60;99.90;;;;;;5016731;28;20449;-67
2021/10/03 15:26:48;;;;;;;7.30;6.60;;;20.60;99.90;;;;;;5016378;28;20453;-69
2021/10/03 15:29:15;;;;;;;6.50;6.00;;;20.50;99.90;;;;;;5016378;28;20455;-69
2021/10/03 15:31:43;;;;;;;6.47;5.83;;;20.50;99.90;;;;;;5016112;28;20500;-69
2021/10/03 15:34:11;;;;;;;6.90;6.30;;;20.50;99.90;;;;;;5016258;28;20512;-67
2021/10/03 15:36:38;;;;;;;6.07;5.53;;;20.40;99.90;;;;;;5016325;28;20839;-67
2021/10/03 15:39:05;;;;;;;6.10;5.60;;;20.40;99.90;;;;;;5017417;28;20524;-67
2021/10/03 15:41:32;;;;;;;5.77;5.37;;;20.30;99.90;;;;;;5018638;28;20489;-64
2021/10/03 15:43:59;;;;;;;6.23;5.53;;;20.30;99.90;;;;;;5015907;28;20460;-68
2021/10/03 15:46:26;;;;;;;7.97;6.73;;;20.30;99.90;;;;;;5016110;28;20457;-67
2021/10/03 15:48:54;;;;;;;6.80;6.10;;;20.30;99.90;;;;;;5016320;28;20459;-67
2021/10/03 15:51:21;;;;;;;7.13;6.40;;;20.20;99.90;;;;;;5015703;28;20480;-67
2021/10/03 15:53:47;;;;;;;8.40;7.60;;;20.20;99.90;;;;;;5016167;28;20452;-67
2021/10/03 15:56:14;;;;;;;7.73;7.03;;;20.10;99.90;;;;;;5016171;28;20507;-67
2021/10/03 15:58:41;;;;;;;8.27;7.57;;;20.00;99.90;;;;;;5015621;28;20613;-67
2021/10/03 16:01:08;;;;;;;7.90;7.30;;;19.80;99.90;;;;;;5015580;28;20498;-68
2021/10/03 16:03:34;;;;;;;8.53;7.87;;;19.80;99.90;;;;;;5015939;28;20456;-68
2021/10/03 16:06:03;;;;;;;8.80;7.90;;;19.60;99.90;;;;;;5016085;28;20456;-68
2021/10/03 16:08:31;;;;;;;8.93;8.23;;;19.60;99.90;;;;;;5015748;28;20460;-68
2021/10/03 16:10:58;;;;;;;13.43;9.30;;;19.40;99.90;;;;;;5015748;28;20563;-66
2021/10/03 16:13:25;;;;;;;8.97;8.27;;;19.40;99.90;;;;;;5015363;28;20957;-66
2021/10/03 16:15:55;;;;;;;7.30;6.70;;;19.20;99.90;;;;;;5015230;28;20467;-67
2021/10/03 16:18:22;;;;;;;7.80;7.03;;;19.20;99.90;;;;;;5015139;28;20449;-66
2021/10/03 16:20:49;;;;;;;8.47;7.67;;;19.10;99.90;;;;;;5015712;28;20481;-67
2021/10/03 16:23:18;;;;;;;7.67;7.03;;;19.10;99.90;;;;;;5015210;28;20456;-68
2021/10/03 16:25:46;;;;;;;7.00;6.40;;;19.00;99.90;;;;;;5015359;28;20421;-69
2021/10/03 16:28:13;;;;;;;7.90;6.47;;;18.90;99.90;;;;;;5016309;28;20808;-67
2021/10/03 16:30:42;;;;;;;8.10;6.07;;;19.00;99.90;;;;;;5016035;28;20480;-68
2021/10/03 16:33:08;;;;;;;6.03;5.63;;;18.90;99.90;;;;;;5015165;28;20452;-68
2021/10/03 16:35:35;;;;;;;6.30;5.60;;;19.00;99.90;;;;;;5015052;28;20456;-68
2021/10/03 16:38:02;;;;;;;6.30;5.80;;;18.90;99.90;;;;;;5015204;28;20468;-67
2021/10/03 16:40:31;;;;;;;7.07;6.37;;;18.90;99.90;;;;;;5014947;28;20484;-67
2021/10/03 16:43:00;;;;;;;6.67;6.17;;;18.90;99.90;;;;;;5014956;28;20453;-67
2021/10/03 16:45:28;;;;;;;7.30;6.63;;;18.90;99.90;;;;;;5014452;28;20544;-67
2021/10/03 16:47:55;;;;;;;7.73;7.00;;;18.90;99.90;;;;;;5014900;28;20481;-68
2021/10/03 16:50:22;;;;;;;6.83;6.33;;;18.80;99.90;;;;;;5015445;28;20460;-66
2021/10/03 16:52:49;;;;;;;7.27;6.67;;;18.90;99.90;;;;;;5014302;28;20826;-67
2021/10/03 16:55:16;;;;;;;7.50;6.70;;;18.90;99.90;;;;;;5014167;28;20492;-66
2021/10/03 16:57:44;;;;;;;7.47;6.87;;;18.90;99.90;;;;;;5013834;28;20821;-67